Time;durP1;ratioP1;P1;durP2;ratioP2;P2;SDS_P1;SDS_P2;PMS_P1;PMS_P2;Temp;Humidity;BMP_temperature;BMP_pressure;BME280_temperature;BME280_humidity;BME280_pressure;Samples;Min_cycle;Max_cycle;Signal;HPM_P1;HPM_P2
2022/05/15 00:01:09;;;;;;;5.13;4.63;;;12.80;99.90;;;;;;5085931;28;20782;-88
2022/05/15 00:03:36;;;;;;;5.50;4.87;;;12.80;99.90;;;;;;5086615;28;21012;-88
2022/05/15 00:06:05;;;;;;;6.87;4.83;;;12.70;99.90;;;;;;5081641;28;20617;-88
2022/05/15 00:08:34;;;;;;;8.57;4.60;;;12.70;99.90;;;;;;5087974;28;20994;-87
2022/05/15 00:11:03;;;;;;;5.40;4.80;;;12.60;99.90;;;;;;5086397;28;20676;-88
2022/05/15 00:13:32;;;;;;;4.47;3.97;;;12.60;99.90;;;;;;5087860;28;20620;-87
2022/05/15 00:15:59;;;;;;;4.13;3.77;;;12.50;99.90;;;;;;5088032;28;20731;-87
2022/05/15 00:18:27;;;;;;;4.27;3.23;;;12.60;99.90;;;;;;5084880;28;20609;-87
2022/05/15 00:20:55;;;;;;;3.23;2.90;;;12.50;99.90;;;;;;5087286;28;20676;-88
2022/05/15 00:23:24;;;;;;;4.10;3.70;;;12.40;99.90;;;;;;5090199;28;20623;-87
2022/05/15 00:25:51;;;;;;;3.60;3.27;;;12.40;99.90;;;;;;5086748;28;20623;-88
2022/05/15 00:28:18;;;;;;;4.20;3.03;;;12.40;99.90;;;;;;5090877;28;20632;-87
2022/05/15 00:30:46;;;;;;;4.33;3.77;;;12.40;99.90;;;;;;5088440;28;20655;-87
2022/05/15 00:33:13;;;;;;;3.90;3.60;;;12.40;99.90;;;;;;5084683;28;20626;-87
2022/05/15 00:35:41;;;;;;;7.40;3.47;;;12.30;99.90;;;;;;5089610;28;20624;-88
2022/05/15 00:38:09;;;;;;;2.83;2.50;;;12.30;99.90;;;;;;5088957;28;20624;-88
2022/05/15 00:40:38;;;;;;;3.73;2.63;;;11.90;99.90;;;;;;5087800;28;20665;-87
2022/05/15 00:43:06;;;;;;;3.60;3.30;;;11.90;99.90;;;;;;5094890;28;20689;-88
2022/05/15 00:45:33;;;;;;;3.23;2.80;;;12.20;99.90;;;;;;5090797;28;20636;-88
2022/05/15 00:48:00;;;;;;;3.77;3.37;;;12.20;99.90;;;;;;5094399;28;20603;-87
2022/05/15 00:50:31;;;;;;;3.70;3.40;;;11.80;99.90;;;;;;5089674;28;20647;-88
2022/05/15 00:53:05;;;;;;;3.50;3.20;;;12.10;99.90;;;;;;5088576;28;20635;-88
2022/05/15 00:55:37;;;;;;;2.90;2.60;;;11.90;99.90;;;;;;5089906;28;20627;-88
2022/05/15 00:58:09;;;;;;;3.60;3.03;;;12.20;99.90;;;;;;5086539;28;20577;-87
2022/05/15 01:00:37;;;;;;;3.40;3.10;;;12.10;99.90;;;;;;5083050;28;20648;-88
2022/05/15 01:03:08;;;;;;;3.73;3.43;;;12.10;99.90;;;;;;5085113;28;20635;-87
2022/05/15 01:05:37;;;;;;;7.23;4.00;;;12.00;99.90;;;;;;5088767;28;20700;-87
2022/05/15 01:08:06;;;;;;;2.93;2.73;;;12.00;99.90;;;;;;5089748;28;21184;-88
2022/05/15 01:10:34;;;;;;;3.40;3.10;;;12.00;99.90;;;;;;5087393;28;20655;-88
2022/05/15 01:13:01;;;;;;;4.10;3.63;;;12.10;99.90;;;;;;5089740;28;20624;-88
2022/05/15 01:15:29;;;;;;;4.03;3.30;;;12.00;99.90;;;;;;5085425;28;20624;-88
2022/05/15 01:17:57;;;;;;;5.30;3.10;;;11.90;99.90;;;;;;5087698;28;20636;-88
2022/05/15 01:20:28;;;;;;;4.47;3.20;;;11.80;99.90;;;;;;5088483;28;20652;-88
2022/05/15 01:22:56;;;;;;;3.33;3.03;;;11.40;99.90;;;;;;5086710;28;20688;-88
2022/05/15 01:25:26;;;;;;;3.30;3.00;;;11.40;99.90;;;;;;5089021;28;20624;-88
2022/05/15 01:27:58;;;;;;;4.60;2.93;;;11.70;99.90;;;;;;5087225;28;20623;-87
2022/05/15 01:30:24;;;;;;;3.47;3.07;;;11.70;99.90;;;;;;5088367;28;21260;-88
2022/05/15 01:32:52;;;;;;;5.90;3.63;;;11.60;99.90;;;;;;5086300;28;20644;-88
2022/05/15 01:35:18;;;;;;;5.43;3.50;;;11.40;99.90;;;;;;5087171;28;20630;-87
2022/05/15 01:37:45;;;;;;;3.57;3.27;;;11.60;99.90;;;;;;5087120;28;20627;-88
2022/05/15 01:40:15;;;;;;;3.67;3.37;;;11.50;99.90;;;;;;5086428;28;20657;-87
2022/05/15 01:42:42;;;;;;;3.80;3.27;;;11.50;99.90;;;;;;5086104;28;20660;-88
2022/05/15 01:45:11;;;;;;;3.27;2.97;;;11.50;99.90;;;;;;5088763;28;21201;-87
2022/05/15 01:47:38;;;;;;;3.93;3.57;;;11.40;99.90;;;;;;5088561;28;21249;-87
2022/05/15 01:50:05;;;;;;;3.40;2.83;;;11.40;99.90;;;;;;5084406;28;20635;-88
2022/05/15 01:52:32;;;;;;;3.33;3.03;;;11.40;99.90;;;;;;5084525;28;20609;-87
2022/05/15 01:54:59;;;;;;;3.87;3.23;;;11.40;99.90;;;;;;5088391;28;21226;-88
2022/05/15 01:57:27;;;;;;;3.47;3.23;;;11.40;99.90;;;;;;5088196;28;20632;-88
2022/05/15 01:59:54;;;;;;;3.50;3.20;;;11.40;99.90;;;;;;5087222;28;20640;-87
2022/05/15 02:02:20;;;;;;;4.00;2.93;;;11.20;99.90;;;;;;5088417;28;20663;-88
2022/05/15 02:04:47;;;;;;;3.50;3.20;;;11.20;99.90;;;;;;5090414;28;20621;-88
2022/05/15 02:07:14;;;;;;;3.57;3.10;;;11.10;99.90;;;;;;5093350;28;20631;-87
2022/05/15 02:09:41;;;;;;;3.60;3.30;;;11.20;99.90;;;;;;5094058;28;20662;-88
2022/05/15 02:12:09;;;;;;;3.70;3.27;;;10.80;99.90;;;;;;5092072;28;21219;-88
2022/05/15 02:14:37;;;;;;;3.50;3.30;;;11.20;99.90;;;;;;5090824;28;20622;-87
2022/05/15 02:17:05;;;;;;;4.60;3.03;;;11.20;99.90;;;;;;5086053;28;20624;-86
2022/05/15 02:19:32;;;;;;;3.57;3.27;;;11.10;99.90;;;;;;5080647;28;21592;-87
2022/05/15 02:21:59;;;;;;;4.00;3.40;;;10.70;99.90;;;;;;5084814;28;21026;-88
2022/05/15 02:24:26;;;;;;;4.73;3.80;;;11.00;99.90;;;;;;5087911;28;20624;-88
2022/05/15 02:26:53;;;;;;;3.63;3.23;;;10.70;99.90;;;;;;5087029;28;20626;-88
2022/05/15 02:29:20;;;;;;;3.80;3.10;;;10.50;99.90;;;;;;5085496;28;20636;-88
2022/05/15 02:31:48;;;;;;;3.67;3.20;;;11.00;99.90;;;;;;5086643;28;20621;-87
2022/05/15 02:34:15;;;;;;;4.70;3.57;;;10.60;99.90;;;;;;5082368;28;20616;-87
2022/05/15 02:36:41;;;;;;;3.70;3.10;;;11.00;99.90;;;;;;5086366;28;20639;-87
2022/05/15 02:39:09;;;;;;;4.80;3.33;;;10.80;99.90;;;;;;5086988;28;20623;-87
2022/05/15 02:41:36;;;;;;;3.90;3.60;;;10.80;99.90;;;;;;5085653;28;20664;-87
2022/05/15 02:44:03;;;;;;;3.90;3.60;;;10.50;99.90;;;;;;5083969;28;20632;-87
2022/05/15 02:46:30;;;;;;;3.53;3.23;;;10.70;99.90;;;;;;5087963;28;20612;-87
2022/05/15 02:51:42;;;;;;;4.17;3.73;;;10.40;99.90;;;;;;5080308;28;20615;-87
2022/05/15 02:54:09;;;;;;;4.27;3.90;;;10.30;99.90;;;;;;5086297;28;20612;-87
2022/05/15 02:56:37;;;;;;;4.20;3.47;;;10.40;99.90;;;;;;5085210;28;20639;-87
2022/05/15 02:59:04;;;;;;;3.77;3.03;;;10.50;99.90;;;;;;5087456;28;20613;-88
2022/05/15 03:01:31;;;;;;;3.50;3.20;;;10.30;99.90;;;;;;5081429;28;20677;-88
2022/05/15 03:03:59;;;;;;;4.20;3.47;;;10.60;99.90;;;;;;5084226;28;20648;-88
2022/05/15 03:06:27;;;;;;;3.43;3.13;;;10.70;99.90;;;;;;5086731;28;20620;-88
2022/05/15 03:08:53;;;;;;;3.83;3.40;;;10.80;99.90;;;;;;5084958;28;20624;-87
2022/05/15 03:11:21;;;;;;;4.77;4.27;;;10.30;99.90;;;;;;5082279;28;20660;-88
2022/05/15 03:13:47;;;;;;;4.77;4.17;;;10.70;99.90;;;;;;5083001;28;20671;-86
2022/05/15 03:16:17;;;;;;;6.43;3.60;;;10.60;99.90;;;;;;5088180;28;20635;-86
2022/05/15 03:18:46;;;;;;;4.30;3.30;;;10.40;99.90;;;;;;5086701;28;20627;-86
2022/05/15 03:21:28;;;;;;;4.90;3.47;;;10.40;99.90;;;;;;5089874;28;20632;-86
2022/05/15 03:23:56;;;;;;;3.23;3.03;;;10.50;99.90;;;;;;5083953;28;20631;-85
2022/05/15 03:26:23;;;;;;;3.33;3.10;;;10.30;99.90;;;;;;5084047;28;20643;-87
2022/05/15 03:28:50;;;;;;;6.47;4.13;;;10.30;99.90;;;;;;5083019;28;20704;-87
2022/05/15 03:31:17;;;;;;;5.00;3.40;;;10.10;99.90;;;;;;5087532;28;20644;-88
2022/05/15 03:33:44;;;;;;;3.57;3.27;;;10.10;99.90;;;;;;5083675;28;21053;-89
2022/05/15 03:36:11;;;;;;;3.40;2.60;;;10.10;99.90;;;;;;5085179;28;20634;-87
2022/05/15 03:38:39;;;;;;;3.80;2.77;;;10.30;99.90;;;;;;5085247;28;20628;-87
2022/05/15 03:41:07;;;;;;;9.63;3.20;;;10.20;99.90;;;;;;5086165;28;21594;-89
2022/05/15 03:43:35;;;;;;;3.43;3.17;;;10.20;99.90;;;;;;5091701;28;20738;-88
2022/05/15 03:46:02;;;;;;;3.80;3.40;;;10.40;99.90;;;;;;5091319;28;21006;-88
2022/05/15 03:48:29;;;;;;;5.93;3.90;;;10.30;99.90;;;;;;5087595;28;20620;-88
2022/05/15 03:50:56;;;;;;;4.40;4.00;;;10.40;99.90;;;;;;5087462;28;20655;-87
2022/05/15 03:53:24;;;;;;;4.03;3.73;;;10.40;99.90;;;;;;5095246;28;20612;-87
2022/05/15 03:55:55;;;;;;;4.23;3.20;;;10.60;99.90;;;;;;5087988;28;20730;-88
2022/05/15 03:58:22;;;;;;;3.70;3.40;;;10.30;99.90;;;;;;5088178;28;20624;-88
2022/05/15 04:00:48;;;;;;;4.20;3.80;;;9.90;99.90;;;;;;5091619;28;21022;-86
2022/05/15 04:03:15;;;;;;;4.37;3.97;;;10.30;99.90;;;;;;5087345;28;20664;-86
2022/05/15 04:05:42;;;;;;;4.90;4.00;;;9.90;99.90;;;;;;5091517;28;20611;-86
2022/05/15 04:08:10;;;;;;;4.53;3.93;;;9.90;99.90;;;;;;5089608;28;20624;-88
2022/05/15 04:10:37;;;;;;;6.37;5.10;;;10.30;99.90;;;;;;5084523;28;20656;-88
2022/05/15 04:13:06;;;;;;;3.77;3.47;;;10.00;99.90;;;;;;5086875;28;20619;-87
2022/05/15 04:15:33;;;;;;;6.43;3.90;;;9.90;99.90;;;;;;5084042;28;20625;-88
2022/05/15 04:18:01;;;;;;;4.17;3.80;;;10.30;99.90;;;;;;5089174;28;20673;-87
2022/05/15 04:20:30;;;;;;;4.40;4.00;;;10.10;99.90;;;;;;5088020;28;20655;-88
2022/05/15 04:22:56;;;;;;;4.47;4.00;;;10.50;99.90;;;;;;5087351;28;20663;-87
2022/05/15 04:25:23;;;;;;;6.27;4.40;;;10.50;99.90;;;;;;5083676;28;20619;-87
2022/05/15 04:27:50;;;;;;;5.33;3.87;;;10.00;99.90;;;;;;5088623;28;20624;-87
2022/05/15 04:30:22;;;;;;;4.23;3.83;;;10.50;99.90;;;;;;5085976;28;20654;-87
2022/05/15 04:32:51;;;;;;;4.07;3.33;;;10.10;99.90;;;;;;5085191;28;20621;-87
2022/05/15 04:35:18;;;;;;;6.80;4.20;;;10.10;99.90;;;;;;5085074;28;20660;-87
2022/05/15 04:37:45;;;;;;;4.43;3.57;;;10.60;99.90;;;;;;5086621;28;20643;-88
2022/05/15 04:40:14;;;;;;;4.50;4.07;;;10.40;99.90;;;;;;5087962;28;20655;-88
2022/05/15 04:42:41;;;;;;;4.47;3.47;;;10.60;99.90;;;;;;5089708;28;21226;-88
2022/05/15 04:45:09;;;;;;;4.70;4.13;;;10.80;99.90;;;;;;5089590;28;21054;-88
2022/05/15 04:47:37;;;;;;;4.03;3.60;;;10.70;99.90;;;;;;5090373;28;20624;-87
2022/05/15 04:50:05;;;;;;;3.57;3.27;;;10.80;99.90;;;;;;5086880;28;20667;-87
2022/05/15 04:52:32;;;;;;;4.47;4.00;;;10.90;99.90;;;;;;5086169;28;20682;-87
2022/05/15 04:54:59;;;;;;;5.00;3.93;;;10.60;99.90;;;;;;5086832;28;20638;-88
2022/05/15 04:57:26;;;;;;;4.50;4.10;;;10.60;99.90;;;;;;5089250;28;20627;-88
2022/05/15 04:59:52;;;;;;;6.10;3.47;;;10.90;99.90;;;;;;5086442;28;21122;-87
2022/05/15 05:02:19;;;;;;;4.37;3.97;;;10.70;99.90;;;;;;5089428;28;20664;-87
2022/05/15 05:04:47;;;;;;;6.03;3.50;;;10.90;99.90;;;;;;5085118;28;20620;-88
2022/05/15 05:07:14;;;;;;;4.33;4.03;;;11.20;99.90;;;;;;5087046;28;20651;-88
2022/05/15 05:09:41;;;;;;;4.10;3.70;;;11.30;99.90;;;;;;5085737;28;20659;-87
2022/05/15 05:12:09;;;;;;;5.40;4.60;;;11.30;99.90;;;;;;5083241;28;20628;-87
2022/05/15 05:14:36;;;;;;;4.50;4.10;;;11.50;99.90;;;;;;5086784;28;20633;-87
2022/05/15 05:17:03;;;;;;;4.53;4.23;;;11.30;99.90;;;;;;5082648;28;20631;-86
2022/05/15 05:19:30;;;;;;;4.90;4.40;;;11.50;99.90;;;;;;5087587;28;21381;-87
2022/05/15 05:21:58;;;;;;;4.63;4.20;;;11.80;99.90;;;;;;5085121;28;21295;-87
2022/05/15 05:24:25;;;;;;;4.93;4.17;;;11.80;99.90;;;;;;5088349;28;20622;-87
2022/05/15 05:26:53;;;;;;;3.80;3.40;;;11.80;99.90;;;;;;5084351;28;20627;-87
2022/05/15 05:29:19;;;;;;;5.80;4.17;;;11.90;99.90;;;;;;5087768;28;20636;-88
2022/05/15 05:31:46;;;;;;;4.73;4.37;;;11.70;99.90;;;;;;5087512;28;20631;-87
2022/05/15 05:34:13;;;;;;;5.27;4.07;;;12.10;99.90;;;;;;5088241;28;20616;-87
2022/05/15 05:36:40;;;;;;;5.40;4.30;;;12.20;99.90;;;;;;5086031;28;20612;-87
2022/05/15 05:39:08;;;;;;;3.83;3.53;;;12.20;99.90;;;;;;5082469;28;20628;-88
2022/05/15 05:41:35;;;;;;;4.40;4.00;;;12.00;99.90;;;;;;5082002;28;20637;-87
2022/05/15 05:44:02;;;;;;;3.93;3.53;;;12.30;99.90;;;;;;5088221;28;20664;-87
2022/05/15 05:46:29;;;;;;;4.57;4.17;;;12.40;99.90;;;;;;5081778;28;20637;-87
2022/05/15 05:48:56;;;;;;;3.87;3.33;;;12.60;99.90;;;;;;5083272;28;20655;-87
2022/05/15 05:51:22;;;;;;;4.90;4.37;;;12.60;99.90;;;;;;5085101;28;20672;-87
2022/05/15 05:53:49;;;;;;;6.40;3.77;;;12.70;99.90;;;;;;5084229;28;20635;-87
2022/05/15 05:56:18;;;;;;;4.40;3.50;;;12.80;99.90;;;;;;5083184;28;20621;-87
2022/05/15 05:58:45;;;;;;;4.97;4.37;;;13.00;99.90;;;;;;5084800;28;20986;-87
2022/05/15 06:01:13;;;;;;;6.33;4.13;;;13.10;99.90;;;;;;5086427;28;20657;-87
2022/05/15 06:06:25;;;;;;;4.70;4.20;;;13.20;99.90;;;;;;5083333;28;20615;-86
2022/05/15 06:08:52;;;;;;;3.87;3.37;;;13.30;99.90;;;;;;5080372;28;20628;-86
2022/05/15 06:11:21;;;;;;;3.93;3.27;;;13.50;99.90;;;;;;5080177;28;20652;-87
2022/05/15 06:13:48;;;;;;;3.37;3.07;;;13.70;99.90;;;;;;5075693;28;21213;-85
2022/05/15 06:16:15;;;;;;;5.23;4.47;;;13.80;99.90;;;;;;5078438;28;20720;-86
2022/05/15 06:18:42;;;;;;;3.97;3.67;;;13.90;99.90;;;;;;5076539;28;20639;-86
2022/05/15 06:21:09;;;;;;;3.20;2.90;;;14.00;99.90;;;;;;5076703;28;20758;-87
2022/05/15 06:23:36;;;;;;;3.73;3.40;;;14.10;99.90;;;;;;5079722;28;20663;-86
2022/05/15 06:26:04;;;;;;;3.37;2.87;;;14.30;99.90;;;;;;5077752;28;20616;-88
2022/05/15 06:28:34;;;;;;;3.40;3.20;;;14.40;99.90;;;;;;5083791;28;20628;-87
2022/05/15 06:31:01;;;;;;;6.07;3.90;;;14.50;99.90;;;;;;5077433;28;21316;-86
2022/05/15 06:33:28;;;;;;;4.30;3.40;;;14.50;99.90;;;;;;5081758;28;21169;-87
2022/05/15 06:35:56;;;;;;;4.53;3.43;;;14.50;99.90;;;;;;5081052;28;20639;-86
2022/05/15 06:38:23;;;;;;;4.13;3.50;;;14.60;99.90;;;;;;5080863;28;20624;-87
2022/05/15 06:40:50;;;;;;;4.13;3.50;;;14.70;99.90;;;;;;5081907;28;21050;-86
2022/05/15 06:43:16;;;;;;;4.23;3.07;;;14.80;99.90;;;;;;5089435;28;20644;-86
2022/05/15 06:45:47;;;;;;;3.97;3.57;;;14.90;99.90;;;;;;5079617;28;20663;-86
2022/05/15 06:48:14;;;;;;;6.07;3.67;;;15.10;99.90;;;;;;5083188;28;20620;-87
2022/05/15 06:50:41;;;;;;;3.40;3.10;;;15.20;99.90;;;;;;5075013;28;20657;-87
2022/05/15 06:53:12;;;;;;;3.93;3.53;;;15.40;99.90;;;;;;5078915;28;20739;-86
2022/05/15 06:57:28;;;;;;;5.20;3.30;;;15.50;99.90;;;;;;5075885;28;20659;-87
2022/05/15 06:58:26;;;;;;;5.03;3.63;;;15.60;99.90;;;;;;5079554;28;20599;-87
2022/05/15 07:00:55;;;;;;;4.20;3.80;;;15.80;99.90;;;;;;5071128;28;20739;-86
2022/05/15 07:03:22;;;;;;;3.57;2.77;;;15.90;99.90;;;;;;5078094;28;20230;-86
2022/05/15 07:05:50;;;;;;;3.50;3.20;;;16.10;99.90;;;;;;5082348;28;20697;-86
2022/05/15 07:08:17;;;;;;;4.67;3.33;;;16.20;99.90;;;;;;5083853;28;20612;-86
2022/05/15 07:10:45;;;;;;;5.67;3.07;;;16.30;99.90;;;;;;5083182;28;21073;-87
2022/05/15 07:13:12;;;;;;;5.40;3.87;;;16.50;99.90;;;;;;5080664;28;20989;-86
2022/05/15 07:15:39;;;;;;;5.03;3.27;;;16.60;99.90;;;;;;5080151;28;20617;-86
2022/05/15 07:18:09;;;;;;;4.73;2.60;;;16.70;99.90;;;;;;5081466;28;20624;-86
2022/05/15 07:20:36;;;;;;;3.37;3.17;;;16.90;99.90;;;;;;5086664;28;21035;-86
2022/05/15 07:23:03;;;;;;;5.00;3.00;;;17.00;99.90;;;;;;5084066;28;20659;-85
2022/05/15 07:25:31;;;;;;;3.73;3.23;;;17.10;99.90;;;;;;5085031;28;20634;-85
2022/05/15 07:27:58;;;;;;;3.33;3.03;;;17.30;99.90;;;;;;5086596;28;20623;-85
2022/05/15 07:30:25;;;;;;;3.20;2.90;;;17.40;99.90;;;;;;5086230;28;20662;-85
2022/05/15 07:32:52;;;;;;;4.30;2.90;;;17.50;99.90;;;;;;5088546;28;20631;-87
2022/05/15 07:35:20;;;;;;;3.30;2.80;;;17.70;99.90;;;;;;5081699;28;21209;-88
2022/05/15 07:37:47;;;;;;;3.90;2.40;;;17.80;99.90;;;;;;5086489;28;20979;-87
2022/05/15 07:40:14;;;;;;;4.10;2.70;;;18.00;99.90;;;;;;5086968;28;21114;-88
2022/05/15 07:42:43;;;;;;;3.40;2.80;;;18.10;99.90;;;;;;5090773;28;20624;-88
2022/05/15 07:45:11;;;;;;;4.10;2.37;;;18.30;99.90;;;;;;5085995;28;21012;-87
2022/05/15 07:47:39;;;;;;;5.87;3.37;;;18.50;99.90;;;;;;5087825;28;20637;-88
2022/05/15 07:50:08;;;;;;;3.10;2.67;;;18.60;99.90;;;;;;5087529;28;20658;-88
2022/05/15 07:52:36;;;;;;;5.63;3.70;;;18.70;99.90;;;;;;5086840;28;20583;-88
2022/05/15 07:55:05;;;;;;;3.23;2.30;;;18.80;99.90;;;;;;5088517;28;20632;-87
2022/05/15 07:57:36;;;;;;;3.87;2.40;;;19.00;99.90;;;;;;5090335;28;21189;-88
2022/05/15 08:00:06;;;;;;;5.20;2.60;;;19.10;99.90;;;;;;5087956;28;20654;-88
2022/05/15 08:02:33;;;;;;;5.70;2.63;;;19.20;99.90;;;;;;5089454;28;20744;-88
2022/05/15 08:08:01;;;;;;;5.73;2.50;;;19.50;99.90;;;;;;5087569;28;20569;-87
2022/05/15 08:10:29;;;;;;;3.00;2.00;;;19.50;99.90;;;;;;5088488;28;20651;-88
2022/05/15 08:12:56;;;;;;;3.20;2.50;;;19.70;99.90;;;;;;5087740;28;20636;-88
2022/05/15 08:15:23;;;;;;;2.40;2.20;;;19.80;99.90;;;;;;5083851;28;20636;-87
2022/05/15 08:17:50;;;;;;;2.53;2.13;;;19.90;99.90;;;;;;5085724;28;20639;-87
2022/05/15 08:26:02;;;;;;;4.40;2.00;;;20.30;99.90;;;;;;5072895;28;20663;-87
2022/05/15 08:28:29;;;;;;;4.90;2.43;;;20.50;99.90;;;;;;5084432;28;20628;-88
2022/05/15 08:30:56;;;;;;;2.90;2.30;;;20.70;99.90;;;;;;5082935;28;21186;-88
2022/05/15 08:33:23;;;;;;;3.03;2.73;;;20.80;99.90;;;;;;5083282;28;21166;-88
2022/05/15 08:35:50;;;;;;;4.67;2.00;;;20.90;99.90;;;;;;5080729;28;20935;-88
2022/05/15 08:38:18;;;;;;;4.07;2.37;;;21.10;99.90;;;;;;5081802;28;20983;-88
2022/05/15 08:40:48;;;;;;;3.13;1.60;;;21.20;99.90;;;;;;5085423;28;20655;-87
2022/05/15 08:43:20;;;;;;;4.53;2.53;;;21.30;99.90;;;;;;5082748;28;20628;-88
2022/05/15 08:46:04;;;;;;;2.53;2.30;;;21.40;99.90;;;;;;5083309;28;20648;-88
2022/05/15 08:48:36;;;;;;;2.90;1.90;;;21.50;99.70;;;;;;5082562;28;20647;-88
2022/05/15 08:51:05;;;;;;;1.70;1.60;;;21.60;99.10;;;;;;5085500;28;20636;-89
2022/05/15 08:53:35;;;;;;;3.67;2.90;;;21.70;99.60;;;;;;5079511;28;20608;-88
2022/05/15 08:56:06;;;;;;;2.80;2.40;;;21.90;98.70;;;;;;5079342;28;21507;-86
2022/05/15 08:58:41;;;;;;;2.30;2.10;;;22.10;99.10;;;;;;5082368;28;20655;-87
2022/05/15 09:01:19;;;;;;;2.67;2.40;;;22.30;97.20;;;;;;5082932;28;20651;-88
2022/05/15 09:03:47;;;;;;;4.03;2.60;;;22.40;96.30;;;;;;5084192;28;20671;-87
2022/05/15 09:06:24;;;;;;;3.63;2.40;;;22.30;94.10;;;;;;5080381;28;20756;-88
2022/05/15 09:09:07;;;;;;;2.97;1.90;;;22.50;95.00;;;;;;5080982;28;20619;-87
2022/05/15 09:11:55;;;;;;;4.73;2.50;;;22.50;94.30;;;;;;5083930;28;20652;-87
2022/05/15 09:14:38;;;;;;;2.70;1.63;;;22.70;95.20;;;;;;5073149;28;20627;-87
2022/05/15 09:17:16;;;;;;;6.43;2.97;;;22.90;94.90;;;;;;5081945;28;21047;-87
2022/05/15 09:19:43;;;;;;;2.90;2.60;;;22.90;90.40;;;;;;5081492;28;20643;-87
2022/05/15 09:22:14;;;;;;;1.80;1.70;;;22.90;90.00;;;;;;5081845;28;20620;-87
2022/05/15 09:24:46;;;;;;;4.97;2.40;;;23.00;87.90;;;;;;5078767;28;21319;-87
2022/05/15 09:27:14;;;;;;;3.33;2.00;;;23.10;87.50;;;;;;5078535;28;20655;-87
2022/05/15 09:29:41;;;;;;;4.50;2.23;;;23.10;85.90;;;;;;5079848;28;20679;-88
2022/05/15 09:32:25;;;;;;;2.00;1.80;;;23.30;86.00;;;;;;5084850;28;20613;-87
2022/05/15 09:34:52;;;;;;;1.73;1.63;;;23.30;81.70;;;;;;5083500;28;20639;-88
2022/05/15 09:40:16;;;;;;;4.13;2.20;;;23.40;81.90;;;;;;5081740;28;21260;-88
2022/05/15 09:45:53;;;;;;;3.87;1.60;;;23.70;74.50;;;;;;5080479;28;20611;-88
2022/05/15 09:48:23;;;;;;;1.50;1.40;;;23.60;68.60;;;;;;5077386;28;20653;-88
2022/05/15 09:50:58;;;;;;;3.87;1.70;;;23.70;70.90;;;;;;5082496;28;21134;-88
2022/05/15 09:53:32;;;;;;;3.67;1.47;;;23.90;71.10;;;;;;5080247;28;20623;-87
2022/05/15 09:56:02;;;;;;;2.73;1.50;;;24.00;69.20;;;;;;5079060;28;20624;-88
2022/05/15 09:58:38;;;;;;;4.10;2.33;;;24.20;69.20;;;;;;5080946;28;21165;-87
2022/05/15 10:01:22;;;;;;;4.17;1.80;;;24.20;68.10;;;;;;5079245;28;20643;-87
2022/05/15 10:03:52;;;;;;;3.17;1.70;;;24.20;66.70;;;;;;5080910;28;20667;-87
2022/05/15 10:06:22;;;;;;;1.63;1.40;;;24.30;69.40;;;;;;5083762;28;20680;-88
2022/05/15 10:09:08;;;;;;;5.00;1.73;;;24.30;65.80;;;;;;5074204;28;20632;-87
2022/05/15 10:11:38;;;;;;;1.77;1.63;;;24.30;66.30;;;;;;5082484;28;20652;-87
2022/05/15 10:14:07;;;;;;;3.80;1.40;;;24.30;65.70;;;;;;5078141;28;21368;-87
2022/05/15 10:16:41;;;;;;;14.37;1.90;;;24.20;67.10;;;;;;5082141;28;20630;-88
2022/05/15 10:19:13;;;;;;;1.83;1.50;;;24.30;64.60;;;;;;5074721;28;20847;-88
2022/05/15 10:21:42;;;;;;;3.43;1.43;;;24.40;64.70;;;;;;5080643;28;21056;-87
2022/05/15 10:24:13;;;;;;;2.80;1.70;;;24.40;63.60;;;;;;5075913;28;21440;-86
2022/05/15 10:26:48;;;;;;;1.83;1.63;;;24.60;63.60;;;;;;5080184;28;21038;-87
2022/05/15 10:29:23;;;;;;;1.93;1.77;;;24.70;62.70;;;;;;5077873;28;22871;-87
2022/05/15 10:31:54;;;;;;;1.80;1.70;;;24.90;65.80;;;;;;5082302;28;20631;-87
2022/05/15 10:34:25;;;;;;;2.13;1.30;;;25.10;64.40;;;;;;5080165;28;20631;-87
2022/05/15 10:37:09;;;;;;;2.67;1.50;;;25.40;64.70;;;;;;5077613;28;20785;-87
2022/05/15 10:39:45;;;;;;;1.87;1.77;;;25.70;64.30;;;;;;5072852;28;20655;-87
2022/05/15 10:42:25;;;;;;;2.40;1.50;;;25.80;61.10;;;;;;5075955;28;21138;-87
2022/05/15 10:45:01;;;;;;;2.50;1.37;;;25.80;58.40;;;;;;5081763;28;20651;-87
2022/05/15 10:47:32;;;;;;;3.40;1.57;;;26.00;59.90;;;;;;5078902;28;20627;-87
2022/05/15 10:50:21;;;;;;;2.37;1.43;;;26.20;58.60;;;;;;5075346;28;21041;-87
2022/05/15 10:57:21;;;;;;;1.87;1.67;;;26.50;58.90;;;;;;5076471;28;20646;-87
2022/05/15 10:59:00;;;;;;;3.90;1.87;;;27.00;57.60;;;;;;5077362;28;20612;-87
2022/05/15 11:01:30;;;;;;;2.73;1.57;;;27.40;57.40;;;;;;5079049;28;21308;-87
2022/05/15 11:04:06;;;;;;;2.07;1.40;;;27.60;56.30;;;;;;5076264;28;20702;-87
2022/05/15 11:06:56;;;;;;;1.70;1.60;;;28.00;55.30;;;;;;5083288;28;20646;-87
2022/05/15 11:09:32;;;;;;;1.63;1.53;;;28.30;54.80;;;;;;5078178;28;20706;-87
2022/05/15 11:12:15;;;;;;;3.27;1.60;;;28.40;52.60;;;;;;5078244;28;20618;-88
2022/05/15 11:14:52;;;;;;;2.17;1.97;;;28.50;54.00;;;;;;5081910;28;20611;-87
2022/05/15 11:17:25;;;;;;;2.90;1.30;;;28.80;50.90;;;;;;5074693;28;20615;-87
2022/05/15 11:19:54;;;;;;;2.70;1.40;;;29.00;51.00;;;;;;5080311;28;20660;-87
2022/05/15 11:22:27;;;;;;;3.80;1.70;;;28.90;49.50;;;;;;5080507;28;20741;-87
2022/05/15 11:24:59;;;;;;;2.30;1.60;;;29.10;50.10;;;;;;5076189;28;20655;-87
2022/05/15 11:27:32;;;;;;;3.30;1.93;;;29.50;50.90;;;;;;5077482;28;20632;-87
2022/05/15 11:30:04;;;;;;;3.63;2.10;;;29.80;50.00;;;;;;5078746;28;20647;-87
2022/05/15 11:32:40;;;;;;;3.07;1.97;;;30.10;48.90;;;;;;5080557;28;20615;-87
2022/05/15 11:35:26;;;;;;;2.77;1.70;;;30.40;49.20;;;;;;5082873;28;20616;-88
2022/05/15 11:38:05;;;;;;;3.10;1.80;;;30.60;47.80;;;;;;5081578;28;21229;-87
2022/05/15 11:40:36;;;;;;;3.40;2.17;;;31.00;45.40;;;;;;5076944;28;20655;-87
2022/05/15 11:43:37;;;;;;;2.30;2.10;;;31.10;47.40;;;;;;5077438;28;21691;-88
2022/05/15 11:46:07;;;;;;;2.73;1.80;;;31.30;44.50;;;;;;5079357;28;20664;-87
2022/05/15 11:48:53;;;;;;;4.97;1.80;;;31.30;45.50;;;;;;5080574;28;20604;-87
2022/05/15 11:51:29;;;;;;;2.63;1.97;;;31.70;45.10;;;;;;5078539;28;20651;-88
2022/05/15 11:54:00;;;;;;;3.53;2.00;;;32.00;44.60;;;;;;5075374;28;20638;-87
2022/05/15 11:56:34;;;;;;;1.97;1.50;;;32.10;44.00;;;;;;5077021;28;20580;-87
2022/05/15 11:59:03;;;;;;;2.70;1.60;;;32.10;42.40;;;;;;5076919;28;20692;-87
2022/05/15 12:01:49;;;;;;;1.97;1.63;;;32.10;42.50;;;;;;5078538;28;20640;-87
2022/05/15 12:04:54;;;;;;;3.37;1.83;;;32.40;42.60;;;;;;5082410;28;20675;-87
2022/05/15 12:07:31;;;;;;;4.07;1.70;;;31.90;41.70;;;;;;5085815;28;20632;-87
2022/05/15 12:09:58;;;;;;;2.03;1.67;;;31.80;40.80;;;;;;5084898;28;21409;-87
2022/05/15 12:13:07;;;;;;;3.00;1.93;;;31.60;40.90;;;;;;5085259;28;21023;-86
2022/05/15 12:15:38;;;;;;;3.10;1.80;;;32.10;41.50;;;;;;5083887;28;20611;-86
2022/05/15 12:18:21;;;;;;;1.90;1.77;;;32.00;40.60;;;;;;5083037;28;20666;-87
2022/05/15 12:20:52;;;;;;;2.27;1.73;;;32.00;40.40;;;;;;5082233;28;20652;-86
2022/05/15 12:23:22;;;;;;;2.80;1.77;;;32.00;40.20;;;;;;5088891;28;20630;-86
2022/05/15 12:25:56;;;;;;;2.43;1.80;;;32.30;39.60;;;;;;5085157;28;20663;-85
2022/05/15 12:31:22;;;;;;;4.43;1.80;;;33.00;38.00;;;;;;5081485;28;20670;-86
2022/05/15 12:33:51;;;;;;;2.53;1.53;;;33.00;39.10;;;;;;5078935;28;20632;-86
2022/05/15 12:36:27;;;;;;;2.47;2.07;;;32.90;38.00;;;;;;5077134;28;20639;-87
2022/05/15 12:38:56;;;;;;;5.30;1.87;;;32.70;38.50;;;;;;5076957;28;20612;-87
2022/05/15 12:41:27;;;;;;;3.43;1.90;;;33.20;38.00;;;;;;5082446;28;20663;-87
2022/05/15 12:43:54;;;;;;;2.03;1.83;;;33.60;38.50;;;;;;5081155;28;20638;-87
2022/05/15 12:46:26;;;;;;;3.10;1.90;;;33.30;38.80;;;;;;5075900;28;20656;-88
2022/05/15 12:48:55;;;;;;;2.17;1.83;;;33.50;38.50;;;;;;5076053;28;20635;-87
2022/05/15 12:51:27;;;;;;;1.87;1.73;;;33.70;38.00;;;;;;5075255;28;20652;-86
2022/05/15 12:53:56;;;;;;;3.33;1.63;;;33.50;37.20;;;;;;5079691;28;20631;-86
2022/05/15 12:56:25;;;;;;;2.10;1.70;;;33.20;37.10;;;;;;5083136;28;20980;-86
2022/05/15 12:58:57;;;;;;;5.47;1.90;;;32.90;37.60;;;;;;5078362;28;20714;-86
2022/05/15 13:01:27;;;;;;;2.17;1.90;;;33.40;37.60;;;;;;5078651;28;20993;-85
2022/05/15 13:03:58;;;;;;;1.93;1.60;;;33.80;35.60;;;;;;5079799;28;20635;-86
2022/05/15 13:06:32;;;;;;;2.00;1.90;;;34.10;37.00;;;;;;5077555;28;20674;-87
2022/05/15 13:09:02;;;;;;;5.03;1.87;;;34.20;35.00;;;;;;5082590;28;20654;-86
2022/05/15 13:11:37;;;;;;;2.43;2.23;;;34.20;34.80;;;;;;5078111;28;20687;-87
2022/05/15 13:14:04;;;;;;;3.17;2.00;;;34.20;34.50;;;;;;5082815;28;21233;-87
2022/05/15 13:16:35;;;;;;;2.43;1.83;;;34.60;34.70;;;;;;5077151;28;20633;-88
2022/05/15 13:19:03;;;;;;;1.97;1.80;;;35.10;35.00;;;;;;5077994;28;20632;-87
2022/05/15 13:21:39;;;;;;;2.43;2.17;;;35.60;34.70;;;;;;5079005;28;21153;-87
2022/05/15 13:24:09;;;;;;;4.77;1.70;;;35.80;35.70;;;;;;5080452;28;20197;-87
2022/05/15 13:26:40;;;;;;;2.40;1.73;;;35.90;34.30;;;;;;5080632;28;20312;-87
2022/05/15 13:29:09;;;;;;;3.67;2.20;;;36.10;34.20;;;;;;5082662;28;20210;-86